Terminal Aerodrome Forecast
Issued by NWS Cleveland, OH

Home | Current Version | Previous Version | Text Only | Print | Product List | Glossary Off
Versions: 1 2 3 4 5 6 7 8 9 10 11 12 13 14 15 16 17 18 19

193
FTUS41 KCLE 181636 AAB
TAFTOL
TAF AMD
KTOL 181636Z 1817/1912 24008KT P6SM BKN028
     FM181900 27015G25KT P6SM BKN028
     FM182200 25006KT P6SM SCT030 BKN045
     FM190700 23006KT P6SM SCT100 OVC200
     FM191000 23006KT 5SM -SHRA OVC040=

USA.gov is the U.S. government's official web portal to all federal, state and local government web resources and services.